sensor_id;sensor_type;location;lat;lon;timestamp;P1;durP1;ratioP1;P2;durP2;ratioP2
24301;SDS011;12421;49.732;20.078;2022-08-01T00:08:13;8.75;;;2.95;;
24301;SDS011;12421;49.732;20.078;2022-08-01T00:18:15;3.83;;;2.50;;
24301;SDS011;12421;49.732;20.078;2022-08-01T00:28:17;4.20;;;2.62;;
24301;SDS011;12421;49.732;20.078;2022-08-01T00:38:19;3.50;;;2.40;;
24301;SDS011;12421;49.732;20.078;2022-08-01T00:48:21;7.17;;;2.80;;
24301;SDS011;12421;49.732;20.078;2022-08-01T00:58:23;6.42;;;2.22;;
24301;SDS011;12421;49.732;20.078;2022-08-01T01:08:27;3.83;;;2.40;;
24301;SDS011;12421;49.732;20.078;2022-08-01T01:18:34;9.40;;;3.80;;
24301;SDS011;12421;49.732;20.078;2022-08-01T01:28:55;6.45;;;2.05;;
24301;SDS011;12421;49.732;20.078;2022-08-01T01:39:06;6.03;;;2.40;;
24301;SDS011;12421;49.732;20.078;2022-08-01T01:59:37;5.40;;;2.45;;
24301;SDS011;12421;49.732;20.078;2022-08-01T02:09:41;6.53;;;2.25;;
24301;SDS011;12421;49.732;20.078;2022-08-01T02:19:45;3.98;;;2.47;;
24301;SDS011;12421;49.732;20.078;2022-08-01T02:29:59;5.87;;;2.60;;
24301;SDS011;12421;49.732;20.078;2022-08-01T02:40:05;3.00;;;2.00;;
24301;SDS011;12421;49.732;20.078;2022-08-01T02:50:12;5.35;;;2.95;;
24301;SDS011;12421;49.732;20.078;2022-08-01T03:00:15;2.75;;;2.08;;
24301;SDS011;12421;49.732;20.078;2022-08-01T03:10:19;6.75;;;2.58;;
24301;SDS011;12421;49.732;20.078;2022-08-01T03:20:21;3.95;;;2.45;;
24301;SDS011;12421;49.732;20.078;2022-08-01T03:30:27;10.25;;;3.05;;
24301;SDS011;12421;49.732;20.078;2022-08-01T03:40:34;5.60;;;2.65;;
24301;SDS011;12421;49.732;20.078;2022-08-01T03:50:57;4.70;;;2.92;;
24301;SDS011;12421;49.732;20.078;2022-08-01T04:01:02;6.22;;;4.20;;
24301;SDS011;12421;49.732;20.078;2022-08-01T04:11:07;4.35;;;3.75;;
24301;SDS011;12421;49.732;20.078;2022-08-01T04:21:11;4.97;;;3.83;;
24301;SDS011;12421;49.732;20.078;2022-08-01T04:31:14;8.08;;;3.65;;
24301;SDS011;12421;49.732;20.078;2022-08-01T04:41:18;7.80;;;4.30;;
24301;SDS011;12421;49.732;20.078;2022-08-01T04:51:22;7.92;;;3.87;;
24301;SDS011;12421;49.732;20.078;2022-08-01T05:01:24;7.67;;;3.27;;
24301;SDS011;12421;49.732;20.078;2022-08-01T05:11:26;8.73;;;3.25;;
24301;SDS011;12421;49.732;20.078;2022-08-01T05:21:28;9.33;;;4.00;;
24301;SDS011;12421;49.732;20.078;2022-08-01T05:31:30;5.72;;;3.60;;
24301;SDS011;12421;49.732;20.078;2022-08-01T05:41:35;4.50;;;3.10;;
24301;SDS011;12421;49.732;20.078;2022-08-01T05:51:38;4.95;;;3.25;;
24301;SDS011;12421;49.732;20.078;2022-08-01T06:01:40;5.22;;;2.27;;
24301;SDS011;12421;49.732;20.078;2022-08-01T06:11:42;4.63;;;2.33;;
24301;SDS011;12421;49.732;20.078;2022-08-01T06:21:44;4.25;;;2.15;;
24301;SDS011;12421;49.732;20.078;2022-08-01T06:31:48;9.50;;;1.70;;
24301;SDS011;12421;49.732;20.078;2022-08-01T06:42:02;4.47;;;1.60;;
24301;SDS011;12421;49.732;20.078;2022-08-01T07:02:47;2.75;;;1.60;;
24301;SDS011;12421;49.732;20.078;2022-08-01T07:12:51;2.37;;;1.17;;
24301;SDS011;12421;49.732;20.078;2022-08-01T07:22:53;2.47;;;1.10;;
24301;SDS011;12421;49.732;20.078;2022-08-01T07:32:55;1.80;;;1.20;;
24301;SDS011;12421;49.732;20.078;2022-08-01T07:53:41;1.67;;;0.80;;
24301;SDS011;12421;49.732;20.078;2022-08-01T08:03:43;3.47;;;1.07;;
24301;SDS011;12421;49.732;20.078;2022-08-01T08:13:54;2.33;;;0.70;;
24301;SDS011;12421;49.732;20.078;2022-08-01T08:23:55;2.75;;;0.90;;
24301;SDS011;12421;49.732;20.078;2022-08-01T08:34:16;1.90;;;0.90;;
24301;SDS011;12421;49.732;20.078;2022-08-01T08:44:18;3.13;;;1.03;;
24301;SDS011;12421;49.732;20.078;2022-08-01T08:54:22;1.90;;;0.82;;
24301;SDS011;12421;49.732;20.078;2022-08-01T09:04:25;2.00;;;0.90;;
24301;SDS011;12421;49.732;20.078;2022-08-01T09:14:28;1.75;;;0.80;;
24301;SDS011;12421;49.732;20.078;2022-08-01T09:24:37;4.25;;;1.10;;
24301;SDS011;12421;49.732;20.078;2022-08-01T09:44:43;4.08;;;1.00;;
24301;SDS011;12421;49.732;20.078;2022-08-01T09:54:53;2.75;;;1.20;;
24301;SDS011;12421;49.732;20.078;2022-08-01T10:04:59;3.02;;;1.12;;
24301;SDS011;12421;49.732;20.078;2022-08-01T10:15:05;2.60;;;1.07;;
24301;SDS011;12421;49.732;20.078;2022-08-01T10:25:10;3.25;;;1.10;;
24301;SDS011;12421;49.732;20.078;2022-08-01T10:35:15;2.85;;;1.17;;
24301;SDS011;12421;49.732;20.078;2022-08-01T10:45:21;2.97;;;1.17;;
24301;SDS011;12421;49.732;20.078;2022-08-01T10:55:30;3.12;;;1.12;;
24301;SDS011;12421;49.732;20.078;2022-08-01T11:06:05;2.62;;;1.00;;
24301;SDS011;12421;49.732;20.078;2022-08-01T11:16:44;3.27;;;1.17;;
24301;SDS011;12421;49.732;20.078;2022-08-01T11:26:28;3.20;;;1.07;;
24301;SDS011;12421;49.732;20.078;2022-08-01T11:36:31;2.12;;;1.00;;
24301;SDS011;12421;49.732;20.078;2022-08-01T11:57:19;8.83;;;1.17;;
24301;SDS011;12421;49.732;20.078;2022-08-01T12:07:25;5.58;;;1.25;;
24301;SDS011;12421;49.732;20.078;2022-08-01T12:17:31;4.47;;;1.60;;
24301;SDS011;12421;49.732;20.078;2022-08-01T12:27:37;1.30;;;0.80;;
24301;SDS011;12421;49.732;20.078;2022-08-01T12:37:45;2.60;;;1.10;;
24301;SDS011;12421;49.732;20.078;2022-08-01T12:47:51;4.37;;;1.05;;
24301;SDS011;12421;49.732;20.078;2022-08-01T12:58:05;2.98;;;1.20;;
24301;SDS011;12421;49.732;20.078;2022-08-01T13:08:22;3.30;;;1.40;;
24301;SDS011;12421;49.732;20.078;2022-08-01T13:18:28;3.22;;;1.45;;
24301;SDS011;12421;49.732;20.078;2022-08-01T13:28:33;3.50;;;1.42;;
24301;SDS011;12421;49.732;20.078;2022-08-01T13:38:38;2.23;;;1.23;;
24301;SDS011;12421;49.732;20.078;2022-08-01T13:49:01;4.47;;;1.35;;
24301;SDS011;12421;49.732;20.078;2022-08-01T13:59:08;4.17;;;1.50;;
24301;SDS011;12421;49.732;20.078;2022-08-01T14:09:10;5.62;;;1.40;;
24301;SDS011;12421;49.732;20.078;2022-08-01T14:19:14;2.57;;;1.30;;
24301;SDS011;12421;49.732;20.078;2022-08-01T14:29:18;3.30;;;1.50;;
24301;SDS011;12421;49.732;20.078;2022-08-01T14:39:20;2.72;;;1.67;;
24301;SDS011;12421;49.732;20.078;2022-08-01T14:49:22;3.30;;;1.50;;
24301;SDS011;12421;49.732;20.078;2022-08-01T14:59:24;3.33;;;1.60;;
24301;SDS011;12421;49.732;20.078;2022-08-01T15:09:27;3.35;;;1.55;;
24301;SDS011;12421;49.732;20.078;2022-08-01T15:19:29;3.50;;;1.80;;
24301;SDS011;12421;49.732;20.078;2022-08-01T15:29:31;3.12;;;2.00;;
24301;SDS011;12421;49.732;20.078;2022-08-01T15:39:36;4.12;;;1.72;;
24301;SDS011;12421;49.732;20.078;2022-08-01T15:49:39;4.40;;;2.10;;
24301;SDS011;12421;49.732;20.078;2022-08-01T15:59:41;3.85;;;2.00;;
24301;SDS011;12421;49.732;20.078;2022-08-01T16:09:43;4.90;;;2.15;;
24301;SDS011;12421;49.732;20.078;2022-08-01T16:19:45;3.98;;;2.20;;
24301;SDS011;12421;49.732;20.078;2022-08-01T16:29:47;5.40;;;3.27;;
24301;SDS011;12421;49.732;20.078;2022-08-01T16:39:49;4.92;;;2.95;;
24301;SDS011;12421;49.732;20.078;2022-08-01T16:49:57;6.40;;;2.87;;
24301;SDS011;12421;49.732;20.078;2022-08-01T16:59:59;8.38;;;2.60;;
24301;SDS011;12421;49.732;20.078;2022-08-01T17:10:01;5.58;;;3.85;;
24301;SDS011;12421;49.732;20.078;2022-08-01T17:20:05;8.93;;;4.22;;
24301;SDS011;12421;49.732;20.078;2022-08-01T17:30:09;4.62;;;3.80;;
24301;SDS011;12421;49.732;20.078;2022-08-01T17:40:13;6.95;;;4.78;;
24301;SDS011;12421;49.732;20.078;2022-08-01T17:50:15;10.82;;;8.65;;
24301;SDS011;12421;49.732;20.078;2022-08-01T18:00:18;6.58;;;4.75;;
24301;SDS011;12421;49.732;20.078;2022-08-01T18:10:20;8.43;;;4.58;;
24301;SDS011;12421;49.732;20.078;2022-08-01T18:20:25;6.95;;;5.40;;
24301;SDS011;12421;49.732;20.078;2022-08-01T18:30:31;8.63;;;4.00;;
24301;SDS011;12421;49.732;20.078;2022-08-01T18:40:34;10.13;;;6.17;;
24301;SDS011;12421;49.732;20.078;2022-08-01T18:50:36;7.75;;;4.90;;
24301;SDS011;12421;49.732;20.078;2022-08-01T19:00:39;6.35;;;4.75;;
24301;SDS011;12421;49.732;20.078;2022-08-01T19:10:42;8.60;;;5.33;;
24301;SDS011;12421;49.732;20.078;2022-08-01T19:20:44;8.25;;;6.10;;
24301;SDS011;12421;49.732;20.078;2022-08-01T19:30:46;8.18;;;5.75;;
24301;SDS011;12421;49.732;20.078;2022-08-01T19:40:50;9.85;;;6.20;;
24301;SDS011;12421;49.732;20.078;2022-08-01T19:50:52;9.55;;;6.00;;
24301;SDS011;12421;49.732;20.078;2022-08-01T20:11:28;8.38;;;6.00;;
24301;SDS011;12421;49.732;20.078;2022-08-01T20:21:44;6.80;;;5.17;;
24301;SDS011;12421;49.732;20.078;2022-08-01T20:31:52;10.95;;;5.03;;
24301;SDS011;12421;49.732;20.078;2022-08-01T20:41:56;8.93;;;5.35;;
24301;SDS011;12421;49.732;20.078;2022-08-01T20:51:58;13.70;;;7.28;;
24301;SDS011;12421;49.732;20.078;2022-08-01T21:02:05;15.48;;;9.63;;
24301;SDS011;12421;49.732;20.078;2022-08-01T21:12:25;15.08;;;8.98;;
24301;SDS011;12421;49.732;20.078;2022-08-01T21:22:45;15.50;;;7.90;;
24301;SDS011;12421;49.732;20.078;2022-08-01T21:33:10;14.28;;;8.83;;
24301;SDS011;12421;49.732;20.078;2022-08-01T21:43:25;15.95;;;8.75;;
24301;SDS011;12421;49.732;20.078;2022-08-01T22:04:13;15.58;;;9.60;;
24301;SDS011;12421;49.732;20.078;2022-08-01T22:14:16;14.60;;;10.33;;
24301;SDS011;12421;49.732;20.078;2022-08-01T22:35:12;15.30;;;10.82;;
24301;SDS011;12421;49.732;20.078;2022-08-01T22:55:45;23.77;;;12.78;;
24301;SDS011;12421;49.732;20.078;2022-08-01T23:06:00;21.42;;;13.43;;
24301;SDS011;12421;49.732;20.078;2022-08-01T23:16:07;14.40;;;10.10;;
24301;SDS011;12421;49.732;20.078;2022-08-01T23:26:10;12.90;;;8.58;;
24301;SDS011;12421;49.732;20.078;2022-08-01T23:36:15;15.18;;;8.10;;
24301;SDS011;12421;49.732;20.078;2022-08-01T23:46:18;12.00;;;7.60;;
24301;SDS011;12421;49.732;20.078;2022-08-01T23:56:20;15.88;;;8.68;;
